WXForecasting.com
Aberdeen, SD - Weather Station Data
Daily Summary for April 21, 2017 Units:  Metric    English   Both
« Previous Day
Next Day »
Daily Weekly Monthly Yearly Custom
  High: Low: Average:
Temperature: 18.1 °C 3 °C 10.4 °C
Dew Point: 7.2 °C 1.1 °C 3.7 °C
Humidity: 91 % 38 % 67 %
Wind Speed: 9.7 km/h 0 km/h 2.3 km/h
Wind Gust: 17.7 km/h - -
Wind:- - NE
Pressure: 1024.6 hPa 1022.6 hPa -
Precipitation: 0 mm    
Historical Graphs
 
 
Tabular Data for April 21, 2017
Time Temperature Dew Point Pressure Wind Wind Speed Wind Gust Humidity Rainfall Rate (Hourly) solar Conditions
00:14 5.8 °C 3.3 °C 1022.6 hPa Calm     83 % 0 mm 0 W/m2
00:29 5.6 °C 3.3 °C 1022.6 hPa Calm   1.6 km/h 85 % 0 mm 0 W/m2
00:45 5.2 °C 2.8 °C 1022.6 hPa Calm     84 % 0 mm 0 W/m2
01:00 5 °C 2.8 °C 1022.9 hPa Calm     86 % 0 mm 0 W/m2
01:15 4.5 °C 2.2 °C 1022.9 hPa Calm     85 % 0 mm 0 W/m2
01:30 4.3 °C 2.2 °C 1022.9 hPa Calm     86 % 0 mm 0 W/m2
01:45 4 °C 2.2 °C 1022.9 hPa Calm     87 % 0 mm 0 W/m2
02:00 3.7 °C 1.7 °C 1022.9 hPa Calm     87 % 0 mm 0 W/m2
02:15 3.8 °C 2.2 °C 1022.9 hPa Calm     88 % 0 mm 0 W/m2
02:30 3.7 °C 1.7 °C 1022.9 hPa Calm     88 % 0 mm 0 W/m2
02:45 3.4 °C 1.7 °C 1022.9 hPa Calm     88 % 0 mm 0 W/m2
03:00 3.2 °C 1.7 °C 1022.9 hPa Calm     88 % 0 mm 0 W/m2
03:15 3.2 °C 1.7 °C 1022.9 hPa Calm     88 % 0 mm 0 W/m2
03:30 3.1 °C 1.1 °C 1022.9 hPa Calm     88 % 0 mm 0 W/m2
03:45 3 °C 1.7 °C 1022.6 hPa Calm   1.6 km/h 89 % 0 mm 0 W/m2
04:00 3.6 °C 2.2 °C 1022.9 hPa Calm   3.2 km/h 90 % 0 mm 0 W/m2
04:15 3.8 °C 2.2 °C 1022.9 hPa Calm   1.6 km/h 90 % 0 mm 0 W/m2
04:30 3.8 °C 2.2 °C 1022.9 hPa Calm   4.8 km/h 89 % 0 mm 0 W/m2
04:45 4 °C 2.2 °C 1022.9 hPa North 1.6 km/h 4.8 km/h 89 % 0 mm 0 W/m2
05:00 4.1 °C 2.8 °C 1022.9 hPa North 1.6 km/h 4.8 km/h 90 % 0 mm 0 W/m2
05:15 4.1 °C 2.2 °C 1023.2 hPa North 3.2 km/h 3.2 km/h 89 % 0 mm 0 W/m2
05:30 3.9 °C 2.2 °C 1023.2 hPa Calm   3.2 km/h 89 % 0 mm 0 W/m2
05:45 3.7 °C 2.2 °C 1023.2 hPa Calm   4.8 km/h 89 % 0 mm 0 W/m2
06:00 3.4 °C 1.7 °C 1023.2 hPa Calm   3.2 km/h 89 % 0 mm 0 W/m2
06:15 3.2 °C 1.7 °C 1023.2 hPa North 1.6 km/h 4.8 km/h 89 % 0 mm 0 W/m2
06:30 3 °C 1.7 °C 1023.2 hPa North 3.2 km/h 4.8 km/h 89 % 0 mm 0 W/m2
06:45 3.1 °C 1.7 °C 1023.2 hPa Calm   6.4 km/h 89 % 0 mm 7 W/m2
07:00 3.1 °C 1.7 °C 1023.6 hPa Calm   1.6 km/h 90 % 0 mm 14 W/m2
07:15 3.3 °C 1.7 °C 1023.6 hPa Calm     90 % 0 mm 30 W/m2
07:30 3.6 °C 2.2 °C 1023.9 hPa ENE 3.2 km/h 4.8 km/h 90 % 0 mm 46 W/m2
07:45 3.3 °C 1.7 °C 1024.3 hPa Calm   6.4 km/h 90 % 0 mm 84 W/m2
08:00 3.1 °C 1.7 °C 1024.3 hPa NE 1.6 km/h 4.8 km/h 90 % 0 mm 109 W/m2
08:15 3.8 °C 2.2 °C 1024.3 hPa NE 1.6 km/h 4.8 km/h 91 % 0 mm 207 W/m2
08:30 5 °C 3.9 °C 1024.3 hPa Calm   4.8 km/h 91 % 0 mm 264 W/m2
08:46 5.9 °C 4.4 °C 1024.3 hPa NE 4.8 km/h 8 km/h 91 % 0 mm 308 W/m2
09:01 6.8 °C 5.6 °C 1024.3 hPa Calm   8 km/h 91 % 0 mm 353 W/m2
09:16 7.7 °C 6.1 °C 1024.3 hPa ENE 6.4 km/h 8 km/h 90 % 0 mm 403 W/m2
09:31 9 °C 6.7 °C 1024.3 hPa ENE 4.8 km/h 6.4 km/h 85 % 0 mm 443 W/m2
09:46 10.1 °C 6.7 °C 1024.3 hPa NE 3.2 km/h 11.3 km/h 79 % 0 mm 490 W/m2
10:01 10.7 °C 6.7 °C 1024.3 hPa NE 4.8 km/h 9.7 km/h 76 % 0 mm 531 W/m2
10:16 11.4 °C 6.7 °C 1024.3 hPa NE 4.8 km/h 14.5 km/h 73 % 0 mm 571 W/m2
10:31 12.1 °C 7.2 °C 1024.3 hPa NE 1.6 km/h 12.9 km/h 72 % 0 mm 608 W/m2
10:46 12.6 °C 6.1 °C 1024.3 hPa NE 4.8 km/h 11.3 km/h 64 % 0 mm 645 W/m2
11:01 13.2 °C 6.1 °C 1024.3 hPa NE 3.2 km/h 11.3 km/h 62 % 0 mm 679 W/m2
11:16 13.4 °C 6.7 °C 1024.3 hPa NE 8 km/h 9.7 km/h 64 % 0 mm 712 W/m2
11:31 14.1 °C 6.1 °C 1024.6 hPa ENE 1.6 km/h 17.7 km/h 59 % 0 mm 742 W/m2
11:46 14.7 °C 6.1 °C 1024.3 hPa NE 6.4 km/h 14.5 km/h 57 % 0 mm 766 W/m2
12:01 14.6 °C 5 °C 1024.3 hPa North 3.2 km/h 12.9 km/h 54 % 0 mm 803 W/m2
12:17 14.6 °C 5 °C 1024.3 hPa ENE 3.2 km/h 9.7 km/h 54 % 0 mm 176 W/m2
12:32 15.3 °C 6.1 °C 1024.3 hPa ENE 3.2 km/h 11.3 km/h 55 % 0 mm 914 W/m2
12:46 15.9 °C 6.7 °C 1024.3 hPa NNE 1.6 km/h 9.7 km/h 54 % 0 mm 949 W/m2
13:02 15.7 °C 5.6 °C 1024.3 hPa North 8 km/h 17.7 km/h 52 % 0 mm 984 W/m2
13:17 15.3 °C 5 °C 1024.3 hPa NE 4.8 km/h 11.3 km/h 50 % 0 mm 209 W/m2
13:31 16.1 °C 5 °C 1024.3 hPa North 1.6 km/h 12.9 km/h 48 % 0 mm 991 W/m2
13:47 15.9 °C 5 °C 1024.3 hPa East 1.6 km/h 12.9 km/h 48 % 0 mm 301 W/m2
14:02 16.8 °C 7.2 °C 1024.3 hPa East 1.6 km/h 9.7 km/h 53 % 0 mm 981 W/m2
14:17 17.1 °C 5.6 °C 1023.9 hPa SSE 4.8 km/h 14.5 km/h 47 % 0 mm 904 W/m2
14:32 17.2 °C 5 °C 1023.9 hPa NE 6.4 km/h 16.1 km/h 45 % 0 mm 993 W/m2
14:47 16.4 °C 3.3 °C 1024.3 hPa Calm   16.1 km/h 42 % 0 mm 642 W/m2
15:02 17.4 °C 5 °C 1023.9 hPa Calm   8 km/h 44 % 0 mm 919 W/m2
15:17 17.7 °C 6.7 °C 1023.9 hPa SW 4.8 km/h 17.7 km/h 49 % 0 mm 969 W/m2
15:32 17.8 °C 5 °C 1024.3 hPa East 1.6 km/h 11.3 km/h 43 % 0 mm 214 W/m2
16:02 16.7 °C 4.4 °C 1023.9 hPa NNE 4.8 km/h 9.7 km/h 45 % 0 mm 220 W/m2
16:17 17.6 °C 5.6 °C 1023.9 hPa NE 6.4 km/h 14.5 km/h 45 % 0 mm 752 W/m2
16:32 17.5 °C 3.9 °C 1023.9 hPa East 3.2 km/h 12.9 km/h 41 % 0 mm 158 W/m2
16:47 17.6 °C 3.9 °C 1023.6 hPa Calm   9.7 km/h 41 % 0 mm 650 W/m2
17:02 18.1 °C 4.4 °C 1023.6 hPa SW 4.8 km/h 9.7 km/h 41 % 0 mm 527 W/m2
17:17 17.8 °C 3.3 °C 1023.6 hPa NE 6.4 km/h 16.1 km/h 39 % 0 mm 547 W/m2
17:32 17.6 °C 3.9 °C 1023.6 hPa Calm   14.5 km/h 40 % 0 mm 476 W/m2
17:47 17.8 °C 3.9 °C 1023.6 hPa NE 4.8 km/h 9.7 km/h 40 % 0 mm 376 W/m2
18:02 17.6 °C 2.8 °C 1023.6 hPa NE 6.4 km/h 16.1 km/h 38 % 0 mm 236 W/m2
18:17 17.6 °C 3.9 °C 1023.6 hPa North 4.8 km/h 16.1 km/h 40 % 0 mm 318 W/m2
18:32 17.4 °C 3.9 °C 1023.6 hPa NE 6.4 km/h 16.1 km/h 40 % 0 mm 107 W/m2
18:47 17.2 °C 3.3 °C 1023.6 hPa Calm   8 km/h 40 % 0 mm 49 W/m2
19:02 17.1 °C 3.9 °C 1023.6 hPa ENE 9.7 km/h 16.1 km/h 42 % 0 mm 46 W/m2
19:17 16.8 °C 3.9 °C 1023.6 hPa NE 8 km/h 14.5 km/h 43 % 0 mm 35 W/m2
19:32 16.7 °C 3.9 °C 1023.6 hPa NE 4.8 km/h 11.3 km/h 43 % 0 mm 25 W/m2
19:47 16.4 °C 3.9 °C 1023.2 hPa NNE 4.8 km/h 8 km/h 44 % 0 mm 16 W/m2
20:02 15.9 °C 3.9 °C 1023.6 hPa NE 4.8 km/h 4.8 km/h 45 % 0 mm 11 W/m2
20:17 15.5 °C 3.9 °C 1023.6 hPa NE 1.6 km/h 4.8 km/h 46 % 0 mm 7 W/m2
20:32 15 °C 3.9 °C 1023.6 hPa NE 3.2 km/h 6.4 km/h 47 % 0 mm 0 W/m2
20:47 14.5 °C 3.9 °C 1023.9 hPa Calm   3.2 km/h 49 % 0 mm 0 W/m2
21:02 13.9 °C 3.9 °C 1024.3 hPa Calm   1.6 km/h 51 % 0 mm 0 W/m2
21:17 13.3 °C 3.3 °C 1024.3 hPa Calm   3.2 km/h 52 % 0 mm 0 W/m2
21:32 12.8 °C 3.3 °C 1024.3 hPa Calm     54 % 0 mm 0 W/m2
21:47 12 °C 3.3 °C 1024.3 hPa Calm     57 % 0 mm 0 W/m2
22:02 11.2 °C 3.3 °C 1024.3 hPa Calm     59 % 0 mm 0 W/m2
22:17 10.4 °C 3.3 °C 1024.6 hPa Calm     62 % 0 mm 0 W/m2
22:32 9.6 °C 2.8 °C 1024.6 hPa Calm     64 % 0 mm 0 W/m2
22:47 8.9 °C 3.3 °C 1024.6 hPa Calm     67 % 0 mm 0 W/m2
23:02 8.5 °C 3.3 °C 1024.6 hPa Calm     69 % 0 mm 0 W/m2
23:17 8 °C 2.8 °C 1024.6 hPa Calm     71 % 0 mm 0 W/m2
23:32 7.7 °C 2.8 °C 1024.6 hPa Calm     72 % 0 mm 0 W/m2
23:47 7.2 °C 2.8 °C 1024.6 hPa Calm     74 % 0 mm 0 W/m2
Compliments of Weather Underground - 1 mb

30 Visitors online right now
Max visitors today: 91 at 11:57 am EDT
This month: 91 at 04-01-2017 06:00 pm EDT
This year: 94 at 03-22-2017 06:40 pm EDT
All time: 104 at 01-04-2012 03:34 am EST
See Who is Online